createdAt,value
2023-04-06T00:00:26.638Z,91.22
2023-04-06T00:01:26.590Z,91.54
2023-04-06T00:02:26.644Z,92.16
2023-04-06T00:03:26.613Z,91.75
2023-04-06T00:04:26.538Z,91.89
2023-04-06T00:05:27.144Z,91.79
2023-04-06T00:06:26.403Z,92.00
2023-04-06T00:07:26.360Z,92.31
2023-04-06T00:08:26.318Z,92.10
2023-04-06T00:09:26.293Z,92.73
2023-04-06T00:10:26.319Z,92.14
2023-04-06T00:11:26.241Z,92.41
2023-04-06T00:12:26.170Z,92.46
2023-04-06T00:13:26.154Z,92.88
2023-04-06T00:14:26.106Z,93.25
2023-04-06T00:15:26.060Z,93.08
2023-04-06T00:16:27.560Z,92.98
2023-04-06T00:17:25.991Z,92.88
2023-04-06T00:18:26.027Z,93.08
2023-04-06T00:19:25.907Z,93.40
2023-04-06T00:20:25.878Z,93.44
2023-04-06T00:21:25.875Z,93.29
2023-04-06T00:22:25.837Z,93.86
2023-04-06T00:23:25.754Z,93.61
2023-04-06T00:24:25.767Z,93.76
2023-04-06T00:25:25.709Z,93.65
2023-04-06T00:26:25.649Z,93.44
2023-04-06T00:27:25.664Z,93.54
2023-04-06T00:28:25.556Z,93.33
2023-04-06T00:29:25.540Z,93.54
2023-04-06T00:30:25.493Z,93.23
2023-04-06T00:31:25.515Z,93.54
2023-04-06T00:32:25.467Z,93.76
2023-04-06T00:33:25.375Z,93.44
2023-04-06T00:34:25.339Z,93.96
2023-04-06T00:35:25.291Z,93.86
2023-04-06T00:36:25.253Z,93.96
2023-04-06T00:37:25.291Z,94.07
2023-04-06T00:38:25.166Z,93.44
2023-04-06T00:39:25.139Z,94.07
2023-04-06T00:40:25.174Z,94.17
2023-04-06T00:41:25.050Z,94.17
2023-04-06T00:42:25.024Z,93.90
2023-04-06T00:43:25.023Z,93.96
2023-04-06T00:44:24.939Z,93.80
2023-04-06T00:45:24.920Z,93.90
2023-04-06T00:46:24.926Z,93.96
2023-04-06T00:47:24.820Z,93.80
2023-04-06T00:48:24.790Z,94.01
2023-04-06T00:49:24.792Z,94.11
2023-04-06T00:50:24.725Z,94.01
2023-04-06T00:51:24.702Z,94.11
2023-04-06T00:52:24.631Z,93.38
2023-04-06T00:53:24.584Z,93.38
2023-04-06T00:54:24.541Z,94.32
2023-04-06T00:55:24.581Z,93.48
2023-04-06T00:56:24.470Z,94.11
2023-04-06T00:57:24.443Z,94.74
2023-04-06T00:58:24.422Z,94.53
2023-04-06T00:59:24.352Z,93.70
2023-04-06T01:00:24.333Z,94.11
2023-04-06T01:01:24.362Z,94.11
2023-04-06T01:02:24.253Z,94.11
2023-04-06T01:03:24.214Z,94.01
2023-04-06T01:04:24.164Z,94.26
2023-04-06T01:05:24.135Z,94.32
2023-04-06T01:06:24.084Z,94.32
2023-04-06T01:07:24.104Z,93.84
2023-04-06T01:08:24.063Z,94.42
2023-04-06T01:09:23.968Z,94.53
2023-04-06T01:10:23.925Z,94.78
2023-04-06T01:11:23.883Z,94.68
2023-04-06T01:12:23.876Z,94.84
2023-04-06T01:13:23.885Z,94.57
2023-04-06T01:14:23.775Z,94.95
2023-04-06T01:15:23.796Z,95.09
2023-04-06T01:16:23.770Z,94.46
2023-04-06T01:17:23.711Z,94.57
2023-04-06T01:18:23.676Z,94.78
2023-04-06T01:19:23.577Z,94.99
2023-04-06T01:20:23.534Z,94.89
2023-04-06T01:21:23.502Z,95.15
2023-04-06T01:22:23.468Z,95.15
2023-04-06T01:23:23.433Z,94.84
2023-04-06T01:24:23.452Z,94.84
2023-04-06T01:25:23.348Z,94.53
2023-04-06T01:26:23.309Z,94.26
2023-04-06T01:27:23.274Z,94.01
2023-04-06T01:28:23.234Z,94.32
2023-04-06T01:29:23.245Z,94.26
2023-04-06T01:30:23.148Z,94.01
2023-04-06T01:31:23.164Z,94.26
2023-04-06T01:32:23.079Z,94.26
2023-04-06T01:33:23.043Z,94.36
2023-04-06T01:34:23.076Z,94.36
2023-04-06T01:35:22.987Z,95.03
2023-04-06T01:36:22.920Z,94.99
2023-04-06T01:37:22.873Z,94.93
2023-04-06T01:38:22.858Z,95.03
2023-04-06T01:39:22.817Z,95.76
2023-04-06T01:40:22.840Z,95.56
2023-04-06T01:41:22.717Z,95.87
2023-04-06T01:42:22.688Z,95.98
2023-04-06T01:43:22.646Z,95.98
2023-04-06T01:44:22.621Z,95.87
2023-04-06T01:45:22.739Z,95.98
2023-04-06T01:46:22.578Z,96.08
2023-04-06T01:47:22.557Z,95.98
2023-04-06T01:48:22.476Z,96.39
2023-04-06T01:49:22.405Z,95.98
2023-04-06T01:50:22.434Z,96.23
2023-04-06T01:51:22.330Z,96.19
2023-04-06T01:52:22.299Z,96.29
2023-04-06T01:53:22.265Z,96.55
2023-04-06T01:54:22.229Z,96.71
2023-04-06T01:55:22.171Z,96.65
2023-04-06T01:56:22.201Z,97.49
2023-04-06T01:57:22.100Z,97.49
2023-04-06T01:58:22.061Z,97.38
2023-04-06T01:59:22.069Z,97.49
2023-04-06T02:00:21.983Z,97.38
2023-04-06T02:01:22.075Z,97.17
2023-04-06T02:02:21.969Z,97.17
2023-04-06T02:03:21.936Z,96.75
2023-04-06T02:04:21.820Z,96.96
2023-04-06T02:05:21.822Z,97.28
2023-04-06T02:06:21.807Z,97.17
2023-04-06T02:07:21.703Z,97.38
2023-04-06T02:08:21.674Z,96.80
2023-04-06T02:09:21.626Z,97.42
2023-04-06T02:10:21.585Z,97.49
2023-04-06T02:11:21.610Z,97.32
2023-04-06T02:12:24.042Z,97.22
2023-04-06T02:13:21.479Z,97.32
2023-04-06T02:14:21.432Z,96.69
2023-04-06T02:15:21.391Z,96.80
2023-04-06T02:16:21.457Z,96.37
2023-04-06T02:17:21.307Z,97.22
2023-04-06T02:18:21.303Z,96.69
2023-04-06T02:19:21.233Z,96.69
2023-04-06T02:20:21.197Z,97.11
2023-04-06T02:21:21.159Z,97.11
2023-04-06T02:22:21.181Z,97.22
2023-04-06T02:23:21.093Z,97.22
2023-04-06T02:24:21.037Z,97.22
2023-04-06T02:25:21.002Z,97.00
2023-04-06T02:26:20.958Z,96.59
2023-04-06T02:27:20.967Z,96.80
2023-04-06T02:28:20.870Z,97.32
2023-04-06T02:29:20.857Z,96.80
2023-04-06T02:30:20.809Z,97.22
2023-04-06T02:31:20.812Z,97.22
2023-04-06T02:32:20.809Z,97.53
2023-04-06T02:33:20.690Z,97.42
2023-04-06T02:34:20.640Z,97.53
2023-04-06T02:35:20.629Z,97.63
2023-04-06T02:36:20.561Z,97.95
2023-04-06T02:37:20.597Z,97.85
2023-04-06T02:38:20.495Z,97.32
2023-04-06T02:39:20.452Z,97.91
2023-04-06T02:40:20.414Z,97.32
2023-04-06T02:41:20.381Z,97.59
2023-04-06T02:42:20.395Z,97.53
2023-04-06T02:43:20.293Z,97.74
2023-04-06T02:44:20.255Z,97.63
2023-04-06T02:45:20.231Z,97.49
2023-04-06T02:46:20.214Z,97.49
2023-04-06T02:47:20.142Z,97.17
2023-04-06T02:48:20.152Z,97.00
2023-04-06T02:49:20.054Z,97.22
2023-04-06T02:50:20.008Z,97.00
2023-04-06T02:51:19.978Z,96.90
2023-04-06T02:52:19.940Z,96.90
2023-04-06T02:53:19.909Z,96.80
2023-04-06T02:54:19.917Z,96.69
2023-04-06T02:55:22.101Z,97.22
2023-04-06T02:56:19.782Z,97.11
2023-04-06T02:57:19.747Z,97.53
2023-04-06T02:58:19.700Z,97.53
2023-04-06T02:59:19.843Z,97.74
2023-04-06T03:00:19.651Z,97.85
2023-04-06T03:01:19.604Z,97.74
2023-04-06T03:02:19.577Z,97.74
2023-04-06T03:03:19.623Z,97.85
2023-04-06T03:04:19.457Z,97.53
2023-04-06T03:05:19.538Z,97.78
2023-04-06T03:06:19.393Z,97.78
2023-04-06T03:07:19.350Z,97.47
2023-04-06T03:08:19.304Z,97.78
2023-04-06T03:09:19.294Z,98.41
2023-04-06T03:10:19.284Z,98.52
2023-04-06T03:11:19.201Z,98.35
2023-04-06T03:12:19.155Z,97.99
2023-04-06T03:13:19.123Z,98.83
2023-04-06T03:14:19.078Z,98.72
2023-04-06T03:15:19.109Z,98.83
2023-04-06T03:16:19.130Z,98.67
2023-04-06T03:17:18.954Z,98.83
2023-04-06T03:18:18.928Z,98.94
2023-04-06T03:19:18.875Z,99.46
2023-04-06T03:20:18.842Z,99.40
2023-04-06T03:21:18.880Z,99.19
2023-04-06T03:22:18.752Z,99.08
2023-04-06T03:23:26.661Z,99.99
2023-04-06T03:24:18.669Z,99.51
2023-04-06T03:25:18.629Z,99.51
2023-04-06T03:26:18.631Z,99.61
2023-04-06T03:27:18.623Z,99.71
2023-04-06T03:28:18.523Z,99.40
2023-04-06T03:29:18.468Z,99.57
2023-04-06T03:30:18.439Z,99.99
2023-04-06T03:31:18.436Z,99.61
2023-04-06T03:32:18.360Z,99.93
2023-04-06T03:33:18.373Z,99.71
2023-04-06T03:34:18.272Z,99.82
2023-04-06T03:35:18.266Z,99.61
2023-04-06T03:36:18.203Z,99.61
2023-04-06T03:37:18.166Z,99.71
2023-04-06T03:38:18.120Z,99.40
2023-04-06T03:39:18.143Z,99.97
2023-04-06T03:40:18.050Z,99.93
2023-04-06T03:41:18.002Z,99.71
2023-04-06T03:42:17.964Z,99.99
2023-04-06T03:43:17.928Z,99.99
2023-04-06T03:44:17.881Z,99.99
2023-04-06T03:45:17.899Z,99.99
2023-04-06T03:46:17.929Z,99.99
2023-04-06T03:47:17.759Z,99.99
2023-04-06T03:48:17.729Z,99.99
2023-04-06T03:49:17.683Z,99.99
2023-04-06T03:50:17.638Z,99.99
2023-04-06T03:51:17.666Z,99.99
2023-04-06T03:52:17.581Z,99.99
2023-04-06T03:53:17.531Z,99.99
2023-04-06T03:54:18.175Z,99.99
2023-04-06T03:55:17.446Z,99.99
2023-04-06T03:56:17.419Z,99.99
2023-04-06T03:57:17.431Z,99.99
2023-04-06T03:58:17.332Z,99.99
2023-04-06T03:59:17.309Z,99.99
2023-04-06T04:00:17.243Z,99.99
2023-04-06T04:01:17.200Z,99.99
2023-04-06T04:02:17.292Z,99.99
2023-04-06T04:03:17.240Z,99.99
2023-04-06T04:04:17.098Z,99.99
2023-04-06T04:05:17.078Z,99.99
2023-04-06T04:06:17.115Z,99.99
2023-04-06T04:07:17.042Z,99.99
2023-04-06T04:08:16.932Z,99.99
2023-04-06T04:09:16.884Z,99.99
2023-04-06T04:10:16.856Z,99.99
2023-04-06T04:11:16.870Z,99.99
2023-04-06T04:12:16.780Z,99.99
2023-04-06T04:13:17.231Z,99.99
2023-04-06T04:14:16.690Z,99.99
2023-04-06T04:15:16.699Z,99.99
2023-04-06T04:16:16.633Z,99.99
2023-04-06T04:17:16.580Z,99.99
2023-04-06T04:18:16.537Z,99.99
2023-04-06T04:19:16.565Z,99.99
2023-04-06T04:20:16.456Z,99.99
2023-04-06T04:21:16.423Z,99.99
2023-04-06T04:22:16.376Z,99.99
2023-04-06T04:23:16.332Z,99.99
2023-04-06T04:24:16.304Z,99.99
2023-04-06T04:25:16.300Z,99.99
2023-04-06T04:26:17.062Z,99.99
2023-04-06T04:27:16.169Z,99.99
2023-04-06T04:28:16.146Z,99.99
2023-04-06T04:29:16.667Z,99.99
2023-04-06T04:30:16.068Z,99.99
2023-04-06T04:31:16.355Z,99.99
2023-04-06T04:32:16.064Z,99.99
2023-04-06T04:33:16.568Z,99.99
2023-04-06T04:34:15.909Z,99.99
2023-04-06T04:35:15.864Z,99.99
2023-04-06T04:36:15.833Z,99.99
2023-04-06T04:37:15.840Z,99.99
2023-04-06T04:38:15.786Z,99.99
2023-04-06T04:39:15.702Z,99.99
2023-04-06T04:40:15.686Z,99.99
2023-04-06T04:41:15.629Z,99.99
2023-04-06T04:42:15.591Z,99.99
2023-04-06T04:43:15.610Z,99.99
2023-04-06T04:44:15.529Z,99.99
2023-04-06T04:45:15.492Z,99.99
2023-04-06T04:46:15.688Z,99.99
2023-04-06T04:47:15.495Z,99.99
2023-04-06T04:48:15.356Z,99.99
2023-04-06T04:49:15.398Z,99.99
2023-04-06T04:50:15.271Z,99.99
2023-04-06T04:51:15.234Z,99.99
2023-04-06T04:52:15.196Z,99.99
2023-04-06T04:53:16.081Z,99.99
2023-04-06T04:54:15.249Z,99.99
2023-04-06T04:55:15.086Z,99.99
2023-04-06T04:56:15.041Z,99.99
2023-04-06T04:57:14.993Z,99.99
2023-04-06T04:58:14.950Z,99.99
2023-04-06T04:59:14.990Z,99.99
2023-04-06T05:00:14.885Z,99.99
2023-04-06T05:01:14.886Z,99.99
2023-04-06T05:02:14.949Z,99.99
2023-04-06T05:03:14.893Z,99.99
2023-04-06T05:04:14.726Z,99.99
2023-04-06T05:05:14.734Z,99.99
2023-04-06T05:06:14.658Z,99.99
2023-04-06T05:07:14.613Z,99.99
2023-04-06T05:08:14.617Z,99.99
2023-04-06T05:09:14.532Z,99.99
2023-04-06T05:10:14.548Z,99.99
2023-04-06T05:11:14.510Z,99.99
2023-04-06T05:12:14.402Z,99.99
2023-04-06T05:13:14.367Z,99.99
2023-04-06T05:14:14.331Z,99.99
2023-04-06T05:15:14.285Z,99.99
2023-04-06T05:16:14.401Z,99.99
2023-04-06T05:17:14.210Z,99.99
2023-04-06T05:18:14.166Z,99.99
2023-04-06T05:19:14.124Z,99.99
2023-04-06T05:20:14.107Z,99.99
2023-04-06T05:21:14.056Z,99.98
2023-04-06T05:22:14.072Z,99.99
2023-04-06T05:23:13.990Z,99.88
2023-04-06T05:24:14.010Z,99.99
2023-04-06T05:25:13.923Z,99.99
2023-04-06T05:26:13.858Z,99.99
2023-04-06T05:27:13.811Z,99.99
2023-04-06T05:28:13.850Z,99.99
2023-04-06T05:29:13.737Z,99.99
2023-04-06T05:30:13.690Z,99.99
2023-04-06T05:31:13.691Z,99.99
2023-04-06T05:32:13.624Z,99.37
2023-04-06T05:33:13.631Z,99.58
2023-04-06T05:34:13.588Z,99.58
2023-04-06T05:35:13.513Z,99.48
2023-04-06T05:36:15.189Z,99.48
2023-04-06T05:37:13.410Z,99.48
2023-04-06T05:38:13.375Z,99.85
2023-04-06T05:39:13.759Z,99.54
2023-04-06T05:40:13.311Z,99.11
2023-04-06T05:41:13.269Z,99.01
2023-04-06T05:42:13.223Z,99.11
2023-04-06T05:43:13.182Z,99.38
2023-04-06T05:44:13.161Z,98.75
2023-04-06T05:45:13.141Z,98.44
2023-04-06T05:46:13.112Z,98.44
2023-04-06T05:47:13.026Z,98.55
2023-04-06T05:48:13.007Z,98.08
2023-04-06T05:49:13.068Z,98.19
2023-04-06T05:50:12.948Z,97.98
2023-04-06T05:51:12.914Z,98.39
2023-04-06T05:52:12.819Z,98.14
2023-04-06T05:53:12.784Z,97.83
2023-04-06T05:54:12.756Z,97.31
2023-04-06T05:55:12.805Z,97.72
2023-04-06T05:56:12.671Z,97.52
2023-04-06T05:57:12.624Z,97.68
2023-04-06T05:58:12.583Z,97.16
2023-04-06T05:59:12.611Z,96.74
2023-04-06T06:00:12.537Z,97.11
2023-04-06T06:01:12.528Z,96.80
2023-04-06T06:02:12.482Z,95.86
2023-04-06T06:03:12.453Z,95.97
2023-04-06T06:04:12.359Z,95.29
2023-04-06T06:05:12.374Z,95.82
2023-04-06T06:06:12.353Z,94.98
2023-04-06T06:07:12.246Z,94.57
2023-04-06T06:08:12.204Z,94.94
2023-04-06T06:09:12.163Z,94.00
2023-04-06T06:10:12.136Z,93.48
2023-04-06T06:11:12.089Z,93.33
2023-04-06T06:12:14.538Z,93.02
2023-04-06T06:13:12.020Z,92.81
2023-04-06T06:14:11.986Z,93.12
2023-04-06T06:15:11.946Z,92.87
2023-04-06T06:16:11.924Z,92.87
2023-04-06T06:17:11.878Z,92.25
2023-04-06T06:18:12.014Z,92.14
2023-04-06T06:19:11.795Z,91.83
2023-04-06T06:20:11.756Z,91.78
2023-04-06T06:21:11.723Z,91.16
2023-04-06T06:22:11.716Z,91.37
2023-04-06T06:23:11.619Z,90.22
2023-04-06T06:24:11.591Z,90.50
2023-04-06T06:25:11.547Z,90.50
2023-04-06T06:26:11.504Z,90.60
2023-04-06T06:27:11.537Z,89.87
2023-04-06T06:28:11.429Z,90.08
2023-04-06T06:29:11.395Z,89.73
2023-04-06T06:30:11.383Z,89.83
2023-04-06T06:31:11.412Z,89.31
2023-04-06T06:32:11.289Z,89.31
2023-04-06T06:33:11.291Z,89.00
2023-04-06T06:34:11.251Z,89.10
2023-04-06T06:35:11.168Z,88.64
2023-04-06T06:36:11.126Z,89.06
2023-04-06T06:37:11.094Z,88.33
2023-04-06T06:38:11.105Z,88.12
2023-04-06T06:39:11.190Z,88.85
2023-04-06T06:40:11.011Z,88.85
2023-04-06T06:41:10.941Z,88.64
2023-04-06T06:42:11.985Z,88.40
2023-04-06T06:43:10.914Z,88.09
2023-04-06T06:44:11.510Z,88.19
2023-04-06T06:45:10.790Z,88.19
2023-04-06T06:46:10.788Z,87.94
2023-04-06T06:47:10.791Z,87.63
2023-04-06T06:48:10.778Z,87.94
2023-04-06T06:49:10.708Z,88.04
2023-04-06T06:50:10.612Z,87.59
2023-04-06T06:51:10.590Z,87.90
2023-04-06T06:52:10.519Z,87.07
2023-04-06T06:53:10.494Z,87.17
2023-04-06T06:54:10.681Z,87.27
2023-04-06T06:55:10.485Z,86.34
2023-04-06T06:56:10.387Z,85.82
2023-04-06T06:57:10.496Z,85.82
2023-04-06T06:58:10.308Z,85.57
2023-04-06T06:59:10.295Z,85.99
2023-04-06T07:00:12.276Z,85.47
2023-04-06T07:01:10.268Z,84.91
2023-04-06T07:02:10.149Z,84.70
2023-04-06T07:03:10.133Z,84.39
2023-04-06T07:04:10.321Z,84.60
2023-04-06T07:05:19.941Z,84.05
2023-04-06T07:06:10.004Z,82.59
2023-04-06T07:07:10.013Z,82.34
2023-04-06T07:08:09.929Z,82.03
2023-04-06T07:09:09.881Z,82.34
2023-04-06T07:10:09.853Z,82.34
2023-04-06T07:11:09.813Z,81.99
2023-04-06T07:12:09.778Z,81.79
2023-04-06T07:13:09.790Z,81.44
2023-04-06T07:14:09.871Z,81.02
2023-04-06T07:15:09.668Z,80.92
2023-04-06T07:16:09.678Z,80.82
2023-04-06T07:17:09.878Z,80.51
2023-04-06T07:18:09.649Z,80.30
2023-04-06T07:19:09.587Z,79.78
2023-04-06T07:20:09.529Z,79.88
2023-04-06T07:21:09.477Z,79.99
2023-04-06T07:22:09.403Z,79.64
2023-04-06T07:23:09.363Z,80.26
2023-04-06T07:24:09.526Z,79.85
2023-04-06T07:25:09.363Z,79.95
2023-04-06T07:26:09.284Z,79.85
2023-04-06T07:27:09.243Z,80.02
2023-04-06T07:28:09.209Z,79.98
2023-04-06T07:29:09.231Z,78.53
2023-04-06T07:30:09.130Z,78.43
2023-04-06T07:31:09.166Z,78.12
2023-04-06T07:32:09.053Z,78.12
2023-04-06T07:33:08.995Z,77.91
2023-04-06T07:34:09.186Z,77.09
2023-04-06T07:35:08.934Z,77.19
2023-04-06T07:36:08.914Z,77.39
2023-04-06T07:37:08.910Z,77.36
2023-04-06T07:38:08.807Z,76.95
2023-04-06T07:39:08.789Z,75.81
2023-04-06T07:40:08.759Z,75.57
2023-04-06T07:41:08.709Z,75.57
2023-04-06T07:42:08.662Z,75.57
2023-04-06T07:43:08.725Z,75.32
2023-04-06T07:44:08.709Z,73.67
2023-04-06T07:45:08.583Z,73.26
2023-04-06T07:46:08.551Z,74.81
2023-04-06T07:47:08.492Z,75.22
2023-04-06T07:48:08.531Z,75.39
2023-04-06T07:49:08.501Z,74.98
2023-04-06T07:50:08.372Z,74.98
2023-04-06T07:51:08.338Z,75.49
2023-04-06T07:52:08.312Z,73.02
2023-04-06T07:53:08.278Z,71.47
2023-04-06T07:54:08.526Z,71.44
2023-04-06T07:55:08.289Z,71.61
2023-04-06T07:56:08.163Z,72.54
2023-04-06T07:57:08.124Z,71.81
2023-04-06T07:58:08.086Z,73.16
2023-04-06T07:59:08.062Z,72.13
2023-04-06T08:00:08.042Z,71.92
2023-04-06T08:01:08.062Z,72.23
2023-04-06T08:02:08.025Z,71.61
2023-04-06T08:03:08.001Z,71.41
2023-04-06T08:04:08.255Z,71.81
2023-04-06T08:05:07.829Z,70.68
2023-04-06T08:06:07.806Z,69.65
2023-04-06T08:07:07.829Z,69.20
2023-04-06T08:08:08.721Z,69.10
2023-04-06T08:09:07.700Z,68.79
2023-04-06T08:10:07.653Z,70.00
2023-04-06T08:11:07.646Z,69.59
2023-04-06T08:12:07.604Z,69.04
2023-04-06T08:13:07.598Z,68.11
2023-04-06T08:14:08.035Z,67.80
2023-04-06T08:15:07.473Z,67.90
2023-04-06T08:16:07.474Z,66.36
2023-04-06T08:17:07.400Z,66.02
2023-04-06T08:18:07.369Z,64.58
2023-04-06T08:19:07.396Z,64.37
2023-04-06T08:20:07.300Z,64.34
2023-04-06T08:21:07.270Z,64.44
2023-04-06T08:22:07.223Z,64.44
2023-04-06T08:23:07.187Z,64.24
2023-04-06T08:24:07.508Z,64.14
2023-04-06T08:25:07.198Z,64.51
2023-04-06T08:26:07.090Z,65.65
2023-04-06T08:27:07.044Z,63.90
2023-04-06T08:28:07.014Z,64.62
2023-04-06T08:29:06.981Z,63.90
2023-04-06T08:30:06.968Z,63.49
2023-04-06T08:31:07.046Z,63.18
2023-04-06T08:32:07.734Z,63.49
2023-04-06T08:33:06.859Z,62.97
2023-04-06T08:34:07.254Z,63.18
2023-04-06T08:35:06.803Z,62.66
2023-04-06T08:36:07.006Z,63.15
2023-04-06T08:37:06.831Z,62.84
2023-04-06T08:38:06.676Z,60.68
2023-04-06T08:39:06.657Z,60.86
2023-04-06T08:40:06.598Z,60.35
2023-04-06T08:41:08.174Z,59.83
2023-04-06T08:42:06.540Z,60.65
2023-04-06T08:43:06.546Z,60.55
2023-04-06T08:44:06.544Z,59.11
2023-04-06T08:45:06.413Z,58.70
2023-04-06T08:46:06.428Z,58.91
2023-04-06T08:47:06.351Z,58.80
2023-04-06T08:48:06.413Z,59.01
2023-04-06T08:49:06.320Z,58.70
2023-04-06T08:50:06.272Z,58.18
2023-04-06T08:51:06.205Z,57.67
2023-04-06T08:52:06.173Z,57.98
2023-04-06T08:53:06.145Z,58.47
2023-04-06T08:54:06.302Z,59.08
2023-04-06T08:55:06.078Z,58.98
2023-04-06T08:56:06.034Z,57.82
2023-04-06T08:57:05.995Z,57.23
2023-04-06T08:58:05.973Z,58.23
2023-04-06T08:59:06.022Z,57.62
2023-04-06T09:00:05.915Z,57.72
2023-04-06T09:01:05.976Z,58.13
2023-04-06T09:02:05.912Z,57.79
2023-04-06T09:03:05.934Z,57.00
2023-04-06T09:04:08.788Z,57.00
2023-04-06T09:05:05.796Z,57.08
2023-04-06T09:06:05.691Z,56.36
2023-04-06T09:07:07.103Z,56.28
2023-04-06T09:08:05.609Z,56.38
2023-04-06T09:09:05.574Z,56.98
2023-04-06T09:10:05.656Z,57.28
2023-04-06T09:11:05.512Z,58.31
2023-04-06T09:12:05.474Z,57.39
2023-04-06T09:13:05.440Z,57.00
2023-04-06T09:14:05.409Z,57.70
2023-04-06T09:15:05.432Z,57.70
2023-04-06T09:16:05.414Z,56.67
2023-04-06T09:17:05.302Z,56.36
2023-04-06T09:18:05.320Z,56.36
2023-04-06T09:19:05.230Z,55.33
2023-04-06T09:20:05.216Z,56.43
2023-04-06T09:21:05.235Z,56.34
2023-04-06T09:22:05.121Z,54.90
2023-04-06T09:23:05.097Z,54.28
2023-04-06T09:24:05.122Z,55.51
2023-04-06T09:25:05.023Z,55.51
2023-04-06T09:26:05.611Z,55.82
2023-04-06T09:27:05.019Z,55.18
2023-04-06T09:28:04.921Z,54.46
2023-04-06T09:29:04.902Z,53.74
2023-04-06T09:30:04.873Z,53.85
2023-04-06T09:31:04.848Z,53.87
2023-04-06T09:32:04.796Z,53.77
2023-04-06T09:33:04.844Z,55.00
2023-04-06T09:34:04.716Z,54.36
2023-04-06T09:35:04.677Z,54.66
2023-04-06T09:36:04.710Z,54.25
2023-04-06T09:37:04.622Z,52.82
2023-04-06T09:38:04.574Z,52.51
2023-04-06T09:39:04.618Z,52.72
2023-04-06T09:40:04.511Z,52.61
2023-04-06T09:41:04.481Z,50.99
2023-04-06T09:42:04.449Z,50.87
2023-04-06T09:43:04.407Z,52.10
2023-04-06T09:44:05.149Z,52.59
2023-04-06T09:45:04.343Z,52.39
2023-04-06T09:46:04.304Z,51.77
2023-04-06T09:47:04.306Z,51.44
2023-04-06T09:48:04.417Z,52.26
2023-04-06T09:49:04.222Z,51.95
2023-04-06T09:50:07.127Z,51.64
2023-04-06T09:51:04.158Z,52.05
2023-04-06T09:52:04.117Z,51.85
2023-04-06T09:53:04.069Z,52.18
2023-04-06T09:54:04.097Z,52.28
2023-04-06T09:55:04.006Z,51.56
2023-04-06T09:56:04.001Z,51.67
2023-04-06T09:57:03.930Z,51.67
2023-04-06T09:58:03.895Z,51.03
2023-04-06T09:59:03.884Z,50.13
2023-04-06T10:00:03.896Z,50.54
2023-04-06T10:01:03.786Z,50.54
2023-04-06T10:02:03.758Z,50.23
2023-04-06T10:03:04.360Z,51.26
2023-04-06T10:04:03.802Z,52.36
2023-04-06T10:05:03.751Z,51.75
2023-04-06T10:06:03.613Z,52.64
2023-04-06T10:07:03.587Z,52.44
2023-04-06T10:08:03.569Z,51.13
2023-04-06T10:09:03.520Z,50.90
2023-04-06T10:10:03.483Z,51.31
2023-04-06T10:11:03.498Z,51.75
2023-04-06T10:12:03.444Z,51.85
2023-04-06T10:13:03.372Z,52.47
2023-04-06T10:14:03.365Z,52.08
2023-04-06T10:15:03.307Z,52.26
2023-04-06T10:16:03.373Z,52.97
2023-04-06T10:17:03.280Z,52.08
2023-04-06T10:18:03.346Z,52.47
2023-04-06T10:19:03.174Z,52.77
2023-04-06T10:20:03.144Z,52.95
2023-04-06T10:21:03.111Z,52.64
2023-04-06T10:22:03.134Z,50.98
2023-04-06T10:23:03.058Z,51.18
2023-04-06T10:24:03.039Z,50.57
2023-04-06T10:25:02.971Z,50.78
2023-04-06T10:26:02.957Z,50.78
2023-04-06T10:27:02.897Z,50.55
2023-04-06T10:28:02.922Z,50.34
2023-04-06T10:29:02.852Z,49.83
2023-04-06T10:30:02.805Z,48.81
2023-04-06T10:31:02.780Z,48.91
2023-04-06T10:32:02.820Z,50.04
2023-04-06T10:33:02.762Z,49.73
2023-04-06T10:34:02.721Z,49.73
2023-04-06T10:35:02.631Z,50.34
2023-04-06T10:36:02.638Z,50.01
2023-04-06T10:37:02.564Z,50.22
2023-04-06T10:38:02.575Z,49.58
2023-04-06T10:39:02.510Z,47.74
2023-04-06T10:40:02.539Z,48.76
2023-04-06T10:41:02.458Z,47.94
2023-04-06T10:42:02.404Z,48.46
2023-04-06T10:43:02.409Z,49.81
2023-04-06T10:44:02.337Z,49.40
2023-04-06T10:45:02.341Z,48.89
2023-04-06T10:46:02.427Z,49.71
2023-04-06T10:47:02.238Z,49.32
2023-04-06T10:48:02.289Z,49.42
2023-04-06T10:49:02.251Z,49.19
2023-04-06T10:50:02.131Z,49.52
2023-04-06T10:51:02.157Z,49.50
2023-04-06T10:52:02.083Z,49.40
2023-04-06T10:53:02.660Z,49.40
2023-04-06T10:54:11.269Z,49.07
2023-04-06T10:55:01.984Z,49.35
2023-04-06T10:56:01.991Z,49.05
2023-04-06T10:57:01.969Z,49.95
2023-04-06T10:58:01.885Z,48.82
2023-04-06T10:59:01.896Z,47.47
2023-04-06T11:00:01.824Z,47.78
2023-04-06T11:01:01.820Z,47.24
2023-04-06T11:02:01.754Z,46.02
2023-04-06T11:03:01.814Z,45.31
2023-04-06T11:04:01.740Z,45.89
2023-04-06T11:05:01.649Z,45.89
2023-04-06T11:06:01.612Z,45.98
2023-04-06T11:07:01.633Z,45.98
2023-04-06T11:08:01.563Z,45.26
2023-04-06T11:09:01.513Z,46.69
2023-04-06T11:10:14.451Z,46.06
2023-04-06T11:11:01.452Z,45.24
2023-04-06T11:12:01.429Z,45.24
2023-04-06T11:13:01.432Z,45.36
2023-04-06T11:14:01.371Z,45.45
2023-04-06T11:15:01.331Z,45.36
2023-04-06T11:16:01.291Z,45.39
2023-04-06T11:17:01.288Z,44.98
2023-04-06T11:18:01.294Z,46.10
2023-04-06T11:19:01.291Z,46.22
2023-04-06T11:20:01.232Z,46.71
2023-04-06T11:21:01.124Z,45.87
2023-04-06T11:22:01.108Z,46.08
2023-04-06T11:23:01.099Z,45.26
2023-04-06T11:24:01.107Z,45.04
2023-04-06T11:25:01.017Z,45.85
2023-04-06T11:26:00.972Z,44.83
2023-04-06T11:27:00.953Z,46.15
2023-04-06T11:28:00.912Z,45.04
2023-04-06T11:29:00.869Z,44.71
2023-04-06T11:30:00.912Z,44.40
2023-04-06T11:31:01.945Z,44.51
2023-04-06T11:32:00.796Z,44.83
2023-04-06T11:33:00.789Z,45.04
2023-04-06T11:34:00.742Z,45.14
2023-04-06T11:35:00.755Z,44.22
2023-04-06T11:36:00.724Z,44.12
2023-04-06T11:37:00.640Z,43.81
2023-04-06T11:38:00.655Z,44.12
2023-04-06T11:39:00.556Z,44.43
2023-04-06T11:40:00.568Z,45.14
2023-04-06T11:41:00.576Z,44.73
2023-04-06T11:42:00.460Z,43.51
2023-04-06T11:43:00.426Z,45.04
2023-04-06T11:44:00.411Z,45.26
2023-04-06T11:45:00.357Z,45.04
2023-04-06T11:46:00.368Z,44.22
2023-04-06T11:47:00.986Z,44.34
2023-04-06T11:48:00.368Z,45.06
2023-04-06T11:49:00.267Z,46.67
2023-04-06T11:50:00.283Z,45.77
2023-04-06T11:51:00.173Z,43.73
2023-04-06T11:52:00.155Z,44.46
2023-04-06T11:53:00.109Z,45.00
2023-04-06T11:54:00.147Z,44.98
2023-04-06T11:55:00.136Z,45.61
2023-04-06T11:56:00.024Z,45.31
2023-04-06T11:56:59.984Z,45.61
2023-04-06T11:57:59.953Z,44.79
2023-04-06T11:58:59.936Z,44.59
2023-04-06T11:59:59.964Z,45.51
2023-04-06T12:00:59.853Z,46.02
2023-04-06T12:01:59.828Z,46.33
2023-04-06T12:02:59.901Z,46.51
2023-04-06T12:04:00.167Z,45.00
2023-04-06T12:04:59.718Z,45.51
2023-04-06T12:05:59.870Z,45.43
2023-04-06T12:06:59.665Z,45.73
2023-04-06T12:08:01.237Z,45.12
2023-04-06T12:08:59.594Z,45.63
2023-04-06T12:09:59.581Z,45.94
2023-04-06T12:10:59.527Z,47.16
2023-04-06T12:11:59.562Z,46.94
2023-04-06T12:12:59.469Z,46.53
2023-04-06T12:13:59.489Z,46.02
2023-04-06T12:14:59.395Z,46.73
2023-04-06T12:15:59.392Z,46.45
2023-04-06T12:16:59.339Z,46.14
2023-04-06T12:17:59.407Z,45.32
2023-04-06T12:18:59.277Z,44.94
2023-04-06T12:20:04.971Z,44.84
2023-04-06T12:20:59.207Z,45.65
2023-04-06T12:21:59.179Z,45.35
2023-04-06T12:22:59.183Z,46.26
2023-04-06T12:23:59.096Z,47.08
2023-04-06T12:24:59.077Z,45.35
2023-04-06T12:25:59.072Z,44.53
2023-04-06T12:27:06.897Z,44.02
2023-04-06T12:27:58.980Z,45.65
2023-04-06T12:28:58.999Z,45.55
2023-04-06T12:29:58.915Z,46.47
2023-04-06T12:30:58.874Z,45.86
2023-04-06T12:31:58.980Z,46.04
2023-04-06T12:32:58.878Z,46.34
2023-04-06T12:33:58.777Z,46.02
2023-04-06T12:34:58.751Z,45.31
2023-04-06T12:35:58.718Z,45.31
2023-04-06T12:36:58.787Z,45.10
2023-04-06T12:37:58.643Z,46.83
2023-04-06T12:38:58.638Z,45.92
2023-04-06T12:39:58.582Z,45.61
2023-04-06T12:40:58.553Z,45.31
2023-04-06T12:41:58.575Z,46.22
2023-04-06T12:42:58.513Z,46.02
2023-04-06T12:43:58.453Z,46.43
2023-04-06T12:44:58.423Z,45.81
2023-04-06T12:45:58.384Z,46.12
2023-04-06T12:46:58.394Z,46.02
2023-04-06T12:47:58.414Z,46.02
2023-04-06T12:48:58.292Z,46.83
2023-04-06T12:49:58.260Z,46.83
2023-04-06T12:50:58.220Z,46.63
2023-04-06T12:51:58.253Z,45.92